Terminal Aerodrome Forecast
Issued by NWS

Home | Current Version | Previous Version | Text Only | Print | Product List | Glossary On
Versions: 1 2 3 4 5 6 7 8 9 10 11 12 13 14 15 16 17 18 19 20 21 22 23 24 25 26 27 28 29 30 31 32 33 34 35 36 37 38 39 40 41 42 43 44 45 46 47 48 49 50
000
FTUS44 KHGX 041744
TAFSGR
TAF
KSGR 041744Z 0418/0518 17012G18KT P6SM BKN021 OVC080
      TEMPO 0418/0419 BKN030
     FM041900 17012G20KT P6SM BKN035
     FM050000 16008KT P6SM VCSH SCT018 BKN060
     FM050100 VRB05KT 6SM -RA BR BKN015
      TEMPO 0502/0504 35015G29KT 3SM +SHRA OVC010
     FM050400 35021G33KT P6SM -RA OVC007
     FM051400 36022G34KT P6SM OVC010
      TEMPO 0516/0518 -RA=

USA.gov is the U.S. government's official web portal to all federal, state and local government web resources and services.